sensor_id;sensor_type;location;lat;lon;timestamp;pressure;altitude;pressure_sealevel;temperature;humidity
59063;BME280;44851;45.648;9.004;2023-06-04T00:02:02;98955.84;;;21.19;51.68
59063;BME280;44851;45.648;9.004;2023-06-04T00:04:27;98955.81;;;21.32;51.74
59063;BME280;44851;45.648;9.004;2023-06-04T00:06:54;98955.41;;;21.28;52.12
59063;BME280;44851;45.648;9.004;2023-06-04T00:09:19;98959.47;;;21.38;51.85
59063;BME280;44851;45.648;9.004;2023-06-04T00:11:45;98953.75;;;21.34;52.19
59063;BME280;44851;45.648;9.004;2023-06-04T00:14:11;98950.13;;;21.22;51.74
59063;BME280;44851;45.648;9.004;2023-06-04T00:16:36;98960.66;;;21.35;52.31
59063;BME280;44851;45.648;9.004;2023-06-04T00:19:02;98963.50;;;21.40;51.37
59063;BME280;44851;45.648;9.004;2023-06-04T00:21:28;98961.28;;;21.31;51.42
59063;BME280;44851;45.648;9.004;2023-06-04T00:23:53;98963.53;;;21.34;51.72
59063;BME280;44851;45.648;9.004;2023-06-04T00:26:19;98965.22;;;21.15;51.68
59063;BME280;44851;45.648;9.004;2023-06-04T00:28:45;98951.72;;;21.29;51.47
59063;BME280;44851;45.648;9.004;2023-06-04T00:31:10;98959.09;;;21.27;51.25
59063;BME280;44851;45.648;9.004;2023-06-04T00:33:38;98956.06;;;21.17;50.99
59063;BME280;44851;45.648;9.004;2023-06-04T00:36:04;98959.13;;;21.14;51.15
59063;BME280;44851;45.648;9.004;2023-06-04T00:38:30;98958.69;;;21.24;51.05
59063;BME280;44851;45.648;9.004;2023-06-04T00:40:55;98956.25;;;21.22;51.59
59063;BME280;44851;45.648;9.004;2023-06-04T00:43:21;98951.16;;;21.21;51.64
59063;BME280;44851;45.648;9.004;2023-06-04T00:45:51;98951.16;;;21.14;51.44
59063;BME280;44851;45.648;9.004;2023-06-04T00:48:17;98958.09;;;21.22;51.33
59063;BME280;44851;45.648;9.004;2023-06-04T00:50:42;98957.03;;;21.29;51.06
59063;BME280;44851;45.648;9.004;2023-06-04T00:53:09;98955.81;;;21.25;51.18
59063;BME280;44851;45.648;9.004;2023-06-04T00:55:36;98959.94;;;21.21;50.96
59063;BME280;44851;45.648;9.004;2023-06-04T00:58:01;98953.41;;;21.17;50.93
59063;BME280;44851;45.648;9.004;2023-06-04T01:00:29;98950.53;;;21.19;50.64
59063;BME280;44851;45.648;9.004;2023-06-04T01:02:55;98957.47;;;21.26;50.53
59063;BME280;44851;45.648;9.004;2023-06-04T01:05:39;98959.09;;;21.08;50.19
59063;BME280;44851;45.648;9.004;2023-06-04T01:08:06;98956.47;;;21.01;50.54
59063;BME280;44851;45.648;9.004;2023-06-04T01:10:34;98949.50;;;21.20;50.55
59063;BME280;44851;45.648;9.004;2023-06-04T01:13:00;98952.75;;;21.28;50.95
59063;BME280;44851;45.648;9.004;2023-06-04T01:15:25;98952.53;;;21.30;50.34
59063;BME280;44851;45.648;9.004;2023-06-04T01:17:54;98956.25;;;21.22;50.97
59063;BME280;44851;45.648;9.004;2023-06-04T01:20:40;98951.34;;;21.26;50.74
59063;BME280;44851;45.648;9.004;2023-06-04T01:25:39;98952.38;;;21.18;51.27
59063;BME280;44851;45.648;9.004;2023-06-04T01:28:10;98951.16;;;21.14;50.73
59063;BME280;44851;45.648;9.004;2023-06-04T01:30:42;98956.25;;;21.22;50.88
59063;BME280;44851;45.648;9.004;2023-06-04T01:33:11;98959.50;;;21.24;50.99
59063;BME280;44851;45.648;9.004;2023-06-04T01:35:37;98959.09;;;21.27;51.31
59063;BME280;44851;45.648;9.004;2023-06-04T01:38:03;98959.94;;;21.21;51.13
59063;BME280;44851;45.648;9.004;2023-06-04T01:40:28;98958.50;;;21.19;50.80
59063;BME280;44851;45.648;9.004;2023-06-04T01:42:54;98956.69;;;21.13;50.21
59063;BME280;44851;45.648;9.004;2023-06-04T01:45:22;98962.78;;;21.13;51.58
59063;BME280;44851;45.648;9.004;2023-06-04T01:47:48;98960.81;;;20.89;52.02
59063;BME280;44851;45.648;9.004;2023-06-04T01:50:13;98968.53;;;20.77;53.75
59063;BME280;44851;45.648;9.004;2023-06-04T01:52:40;98968.94;;;20.81;54.57
59063;BME280;44851;45.648;9.004;2023-06-04T01:55:07;98959.97;;;20.82;55.06
59063;BME280;44851;45.648;9.004;2023-06-04T01:57:33;98971.41;;;20.75;54.63
59063;BME280;44851;45.648;9.004;2023-06-04T01:59:59;98981.00;;;20.63;55.86
59063;BME280;44851;45.648;9.004;2023-06-04T02:02:26;98977.50;;;20.30;56.21
59063;BME280;44851;45.648;9.004;2023-06-04T02:04:51;98977.94;;;20.40;56.02
59063;BME280;44851;45.648;9.004;2023-06-04T02:07:18;98984.88;;;20.54;55.74
59063;BME280;44851;45.648;9.004;2023-06-04T02:09:46;98987.53;;;20.47;55.38
59063;BME280;44851;45.648;9.004;2023-06-04T02:12:11;98980.56;;;20.33;55.58
59063;BME280;44851;45.648;9.004;2023-06-04T02:14:37;98984.88;;;20.47;55.53
59063;BME280;44851;45.648;9.004;2023-06-04T02:17:03;98988.94;;;20.63;55.19
59063;BME280;44851;45.648;9.004;2023-06-04T02:19:30;98990.16;;;20.54;56.26
59063;BME280;44851;45.648;9.004;2023-06-04T02:21:58;98995.28;;;20.62;55.95
59063;BME280;44851;45.648;9.004;2023-06-04T02:24:24;98988.53;;;20.53;55.73
59063;BME280;44851;45.648;9.004;2023-06-04T02:26:49;99003.22;;;20.62;55.51
59063;BME280;44851;45.648;9.004;2023-06-04T02:29:15;98997.91;;;20.56;56.13
59063;BME280;44851;45.648;9.004;2023-06-04T02:31:40;98997.09;;;20.42;56.22
59063;BME280;44851;45.648;9.004;2023-06-04T02:34:06;98993.03;;;20.53;56.43
59063;BME280;44851;45.648;9.004;2023-06-04T02:36:31;98993.03;;;20.46;56.18
59063;BME280;44851;45.648;9.004;2023-06-04T02:38:56;98992.59;;;20.36;57.35
59063;BME280;44851;45.648;9.004;2023-06-04T02:41:23;98997.47;;;20.32;57.57
59063;BME280;44851;45.648;9.004;2023-06-04T02:43:48;98999.09;;;20.27;57.63
59063;BME280;44851;45.648;9.004;2023-06-04T02:46:14;99010.28;;;20.29;58.03
59063;BME280;44851;45.648;9.004;2023-06-04T02:48:40;99012.91;;;20.15;58.04
59063;BME280;44851;45.648;9.004;2023-06-04T02:51:05;99032.09;;;20.31;58.91
59063;BME280;44851;45.648;9.004;2023-06-04T02:53:31;99047.53;;;20.34;57.65
59063;BME280;44851;45.648;9.004;2023-06-04T02:55:56;99036.50;;;20.10;57.84
59063;BME280;44851;45.648;9.004;2023-06-04T02:58:21;99039.09;;;19.84;58.13
59063;BME280;44851;45.648;9.004;2023-06-04T03:00:52;99051.06;;;19.80;59.37
59063;BME280;44851;45.648;9.004;2023-06-04T03:03:18;99048.16;;;19.61;61.09
59063;BME280;44851;45.648;9.004;2023-06-04T03:05:43;99050.13;;;19.59;60.51
59063;BME280;44851;45.648;9.004;2023-06-04T03:08:08;99051.59;;;19.27;62.42
59063;BME280;44851;45.648;9.004;2023-06-04T03:10:34;99059.22;;;18.81;64.63
59063;BME280;44851;45.648;9.004;2023-06-04T03:12:59;99060.19;;;18.37;66.97
59063;BME280;44851;45.648;9.004;2023-06-04T03:15:25;99076.09;;;18.43;68.01
59063;BME280;44851;45.648;9.004;2023-06-04T03:17:50;99082.25;;;18.51;67.70
59063;BME280;44851;45.648;9.004;2023-06-04T03:20:16;99075.19;;;18.36;71.28
59063;BME280;44851;45.648;9.004;2023-06-04T03:22:42;99070.16;;;18.20;71.83
59063;BME280;44851;45.648;9.004;2023-06-04T03:25:08;99064.56;;;18.08;71.34
59063;BME280;44851;45.648;9.004;2023-06-04T03:27:33;99063.94;;;18.06;72.75
59063;BME280;44851;45.648;9.004;2023-06-04T03:30:00;99063.22;;;17.83;73.81
59063;BME280;44851;45.648;9.004;2023-06-04T03:32:25;99046.88;;;17.73;71.15
59063;BME280;44851;45.648;9.004;2023-06-04T03:34:50;99042.78;;;17.70;70.73
59063;BME280;44851;45.648;9.004;2023-06-04T03:37:17;99050.25;;;17.67;70.34
59063;BME280;44851;45.648;9.004;2023-06-04T03:39:42;99045.97;;;17.65;71.35
59063;BME280;44851;45.648;9.004;2023-06-04T03:42:08;99039.00;;;17.43;71.78
59063;BME280;44851;45.648;9.004;2023-06-04T03:44:33;99039.44;;;17.61;71.91
59063;BME280;44851;45.648;9.004;2023-06-04T03:46:59;99033.63;;;17.51;70.24
59063;BME280;44851;45.648;9.004;2023-06-04T03:49:24;99025.44;;;17.46;70.72
59063;BME280;44851;45.648;9.004;2023-06-04T03:51:50;99022.19;;;17.44;69.64
59063;BME280;44851;45.648;9.004;2023-06-04T03:54:16;99014.91;;;17.46;71.01
59063;BME280;44851;45.648;9.004;2023-06-04T03:56:45;99019.44;;;17.52;70.96
59063;BME280;44851;45.648;9.004;2023-06-04T03:59:10;99017.06;;;17.57;70.62
59063;BME280;44851;45.648;9.004;2023-06-04T04:01:36;99009.56;;;17.25;71.03
59063;BME280;44851;45.648;9.004;2023-06-04T04:04:01;99007.66;;;17.48;71.09
59063;BME280;44851;45.648;9.004;2023-06-04T04:06:27;99010.03;;;17.43;71.98
59063;BME280;44851;45.648;9.004;2023-06-04T04:08:52;98992.00;;;17.47;70.67
59063;BME280;44851;45.648;9.004;2023-06-04T04:11:18;98996.13;;;17.34;73.37
59063;BME280;44851;45.648;9.004;2023-06-04T04:13:45;98986.38;;;17.05;72.33
59063;BME280;44851;45.648;9.004;2023-06-04T04:16:23;98989.69;;;17.22;72.14
59063;BME280;44851;45.648;9.004;2023-06-04T04:18:59;98995.31;;;17.34;73.75
59063;BME280;44851;45.648;9.004;2023-06-04T04:21:25;98989.47;;;17.53;72.83
59063;BME280;44851;45.648;9.004;2023-06-04T04:23:50;98991.84;;;17.48;73.17
59063;BME280;44851;45.648;9.004;2023-06-04T04:26:17;98990.88;;;17.71;73.05
59063;BME280;44851;45.648;9.004;2023-06-04T04:28:43;98994.22;;;17.79;72.68
59063;BME280;44851;45.648;9.004;2023-06-04T04:31:08;98998.16;;;17.69;73.06
59063;BME280;44851;45.648;9.004;2023-06-04T04:33:36;99001.47;;;17.92;73.43
59063;BME280;44851;45.648;9.004;2023-06-04T04:36:05;99010.03;;;18.15;72.60
59063;BME280;44851;45.648;9.004;2023-06-04T04:38:30;99006.03;;;18.20;72.26
59063;BME280;44851;45.648;9.004;2023-06-04T04:40:59;99020.22;;;18.19;71.71
59063;BME280;44851;45.648;9.004;2023-06-04T04:43:30;99009.53;;;18.05;70.14
59063;BME280;44851;45.648;9.004;2023-06-04T04:45:55;99023.63;;;18.12;70.99
59063;BME280;44851;45.648;9.004;2023-06-04T04:48:21;99027.84;;;18.28;71.78
59063;BME280;44851;45.648;9.004;2023-06-04T04:50:46;99025.25;;;18.13;70.78
59063;BME280;44851;45.648;9.004;2023-06-04T04:53:12;99040.22;;;18.28;71.17
59063;BME280;44851;45.648;9.004;2023-06-04T04:55:37;99038.06;;;18.16;70.43
59063;BME280;44851;45.648;9.004;2023-06-04T04:58:02;99034.69;;;18.23;71.42
59063;BME280;44851;45.648;9.004;2023-06-04T05:00:28;99037.31;;;18.23;71.20
59063;BME280;44851;45.648;9.004;2023-06-04T05:02:54;99034.78;;;18.14;70.84
59063;BME280;44851;45.648;9.004;2023-06-04T05:05:20;99026.78;;;18.23;71.92
59063;BME280;44851;45.648;9.004;2023-06-04T05:07:45;99028.41;;;18.24;72.60
59063;BME280;44851;45.648;9.004;2023-06-04T05:10:11;99038.09;;;18.38;71.79
59063;BME280;44851;45.648;9.004;2023-06-04T05:12:36;99038.97;;;18.45;72.71
59063;BME280;44851;45.648;9.004;2023-06-04T05:15:01;99036.88;;;18.19;71.18
59063;BME280;44851;45.648;9.004;2023-06-04T05:17:28;99035.44;;;18.38;72.39
59063;BME280;44851;45.648;9.004;2023-06-04T05:19:56;99050.38;;;18.31;72.41
59063;BME280;44851;45.648;9.004;2023-06-04T05:22:30;99052.59;;;18.49;73.29
59063;BME280;44851;45.648;9.004;2023-06-04T05:24:57;99057.78;;;18.42;71.62
59063;BME280;44851;45.648;9.004;2023-06-04T05:27:25;99054.16;;;18.43;72.30
59063;BME280;44851;45.648;9.004;2023-06-04T05:29:50;99054.78;;;18.45;72.39
59063;BME280;44851;45.648;9.004;2023-06-04T05:32:16;99050.53;;;18.44;72.35
59063;BME280;44851;45.648;9.004;2023-06-04T05:34:41;99051.59;;;18.28;70.70
59063;BME280;44851;45.648;9.004;2023-06-04T05:37:07;99047.69;;;18.24;71.47
59063;BME280;44851;45.648;9.004;2023-06-04T05:39:33;99048.94;;;18.28;71.65
59063;BME280;44851;45.648;9.004;2023-06-04T05:41:59;99055.47;;;18.32;71.62
59063;BME280;44851;45.648;9.004;2023-06-04T05:44:24;99060.19;;;18.37;71.61
59063;BME280;44851;45.648;9.004;2023-06-04T05:46:50;99060.19;;;18.37;71.13
59063;BME280;44851;45.648;9.004;2023-06-04T05:49:16;99065.09;;;18.40;72.14
59063;BME280;44851;45.648;9.004;2023-06-04T05:51:42;99056.41;;;18.25;70.92
59063;BME280;44851;45.648;9.004;2023-06-04T05:54:11;99060.06;;;18.24;72.04
59063;BME280;44851;45.648;9.004;2023-06-04T05:56:36;99055.66;;;18.31;72.54
59063;BME280;44851;45.648;9.004;2023-06-04T05:59:02;99056.13;;;18.34;72.33
59063;BME280;44851;45.648;9.004;2023-06-04T06:01:28;99058.31;;;18.52;72.35
59063;BME280;44851;45.648;9.004;2023-06-04T06:03:54;99050.75;;;18.71;72.32
59063;BME280;44851;45.648;9.004;2023-06-04T06:06:20;99060.56;;;18.77;72.71
59063;BME280;44851;45.648;9.004;2023-06-04T06:08:48;99056.22;;;18.90;72.00
59063;BME280;44851;45.648;9.004;2023-06-04T06:11:15;99063.06;;;18.63;71.01
59063;BME280;44851;45.648;9.004;2023-06-04T06:13:42;99055.28;;;18.55;71.75
59063;BME280;44851;45.648;9.004;2023-06-04T06:16:08;99067.34;;;18.64;71.85
59063;BME280;44851;45.648;9.004;2023-06-04T06:18:33;99064.69;;;18.86;71.89
59063;BME280;44851;45.648;9.004;2023-06-04T06:20:59;99060.88;;;19.16;71.36
59063;BME280;44851;45.648;9.004;2023-06-04T06:23:24;99067.13;;;19.43;70.58
59063;BME280;44851;45.648;9.004;2023-06-04T06:25:52;99071.22;;;19.46;68.78
59063;BME280;44851;45.648;9.004;2023-06-04T06:28:18;99077.94;;;19.83;68.50
59063;BME280;44851;45.648;9.004;2023-06-04T06:30:47;99071.28;;;19.59;68.45
59063;BME280;44851;45.648;9.004;2023-06-04T06:33:14;99074.84;;;19.73;68.40
59063;BME280;44851;45.648;9.004;2023-06-04T06:35:41;99068.53;;;19.67;69.00
59063;BME280;44851;45.648;9.004;2023-06-04T06:38:07;99062.56;;;20.13;67.83
59063;BME280;44851;45.648;9.004;2023-06-04T06:40:32;99076.06;;;20.32;65.13
59063;BME280;44851;45.648;9.004;2023-06-04T06:42:57;99074.09;;;20.47;65.32
59063;BME280;44851;45.648;9.004;2023-06-04T06:45:23;99072.66;;;20.97;64.60
59063;BME280;44851;45.648;9.004;2023-06-04T06:47:48;99081.81;;;21.35;65.55
59063;BME280;44851;45.648;9.004;2023-06-04T06:50:14;99083.25;;;21.44;63.82
59063;BME280;44851;45.648;9.004;2023-06-04T06:52:42;99088.13;;;21.47;64.14
59063;BME280;44851;45.648;9.004;2023-06-04T06:55:08;99096.75;;;21.22;61.14
59063;BME280;44851;45.648;9.004;2023-06-04T06:57:33;99095.72;;;21.10;61.32
59063;BME280;44851;45.648;9.004;2023-06-04T06:59:59;99094.50;;;21.19;62.23
59063;BME280;44851;45.648;9.004;2023-06-04T07:02:24;99094.50;;;20.99;61.58
59063;BME280;44851;45.648;9.004;2023-06-04T07:04:50;99093.06;;;20.84;62.12
59063;BME280;44851;45.648;9.004;2023-06-04T07:07:15;99099.78;;;20.80;63.51
59063;BME280;44851;45.648;9.004;2023-06-04T07:09:41;99097.72;;;20.55;63.46
59063;BME280;44851;45.648;9.004;2023-06-04T07:12:07;99100.56;;;20.60;65.35
59063;BME280;44851;45.648;9.004;2023-06-04T07:14:32;99098.09;;;20.39;64.02
59063;BME280;44851;45.648;9.004;2023-06-04T07:16:58;99101.81;;;20.58;65.25
59063;BME280;44851;45.648;9.004;2023-06-04T07:19:24;99111.00;;;20.62;65.64
59063;BME280;44851;45.648;9.004;2023-06-04T07:21:50;99101.31;;;20.34;64.45
59063;BME280;44851;45.648;9.004;2023-06-04T07:24:15;99107.91;;;20.52;64.76
59063;BME280;44851;45.648;9.004;2023-06-04T07:26:41;99107.41;;;20.35;64.16
59063;BME280;44851;45.648;9.004;2023-06-04T07:29:07;99110.19;;;20.13;63.05
59063;BME280;44851;45.648;9.004;2023-06-04T07:31:32;99108.59;;;20.19;65.44
59063;BME280;44851;45.648;9.004;2023-06-04T07:33:57;99111.16;;;20.54;66.01
59063;BME280;44851;45.648;9.004;2023-06-04T07:36:23;99111.97;;;20.47;65.61
59063;BME280;44851;45.648;9.004;2023-06-04T07:38:48;99108.31;;;20.55;66.13
59063;BME280;44851;45.648;9.004;2023-06-04T07:41:14;99116.84;;;20.44;64.72
59063;BME280;44851;45.648;9.004;2023-06-04T07:43:39;99113.59;;;20.55;63.48
59063;BME280;44851;45.648;9.004;2023-06-04T07:46:05;99117.69;;;20.64;64.70
59063;BME280;44851;45.648;9.004;2023-06-04T07:48:31;99125.84;;;20.63;65.26
59063;BME280;44851;45.648;9.004;2023-06-04T07:51:01;99126.41;;;20.45;63.68
59063;BME280;44851;45.648;9.004;2023-06-04T07:53:26;99123.81;;;20.58;65.21
59063;BME280;44851;45.648;9.004;2023-06-04T07:55:52;99115.22;;;20.49;65.41
59063;BME280;44851;45.648;9.004;2023-06-04T07:58:18;99117.66;;;20.38;63.94
59063;BME280;44851;45.648;9.004;2023-06-04T08:00:44;99116.47;;;20.54;64.93
59063;BME280;44851;45.648;9.004;2023-06-04T08:03:09;99115.22;;;20.43;64.40
59063;BME280;44851;45.648;9.004;2023-06-04T08:05:36;99115.66;;;20.53;63.67
59063;BME280;44851;45.648;9.004;2023-06-04T08:08:03;99119.59;;;20.22;63.16
59063;BME280;44851;45.648;9.004;2023-06-04T08:10:31;99116.84;;;20.44;64.31
59063;BME280;44851;45.648;9.004;2023-06-04T08:12:56;99122.09;;;20.31;66.34
59063;BME280;44851;45.648;9.004;2023-06-04T08:15:22;99126.13;;;20.27;64.50
59063;BME280;44851;45.648;9.004;2023-06-04T08:17:47;99126.19;;;20.40;62.50
59063;BME280;44851;45.648;9.004;2023-06-04T08:20:13;99133.06;;;20.28;62.50
59063;BME280;44851;45.648;9.004;2023-06-04T08:22:38;99140.34;;;20.19;63.30
59063;BME280;44851;45.648;9.004;2023-06-04T08:25:04;99134.34;;;20.45;64.44
59063;BME280;44851;45.648;9.004;2023-06-04T08:27:30;99139.63;;;20.38;63.58
59063;BME280;44851;45.648;9.004;2023-06-04T08:29:56;99127.88;;;20.54;64.36
59063;BME280;44851;45.648;9.004;2023-06-04T08:32:23;99124.56;;;20.39;64.27
59063;BME280;44851;45.648;9.004;2023-06-04T08:34:48;99135.63;;;20.75;62.68
59063;BME280;44851;45.648;9.004;2023-06-04T08:37:14;99137.47;;;20.68;61.76
59063;BME280;44851;45.648;9.004;2023-06-04T08:39:40;99144.19;;;20.71;63.10
59063;BME280;44851;45.648;9.004;2023-06-04T08:42:07;99145.44;;;20.82;63.61
59063;BME280;44851;45.648;9.004;2023-06-04T08:44:35;99149.31;;;20.92;63.60
59063;BME280;44851;45.648;9.004;2023-06-04T08:47:04;99145.25;;;20.90;62.66
59063;BME280;44851;45.648;9.004;2023-06-04T08:49:40;99149.31;;;21.12;62.77
59063;BME280;44851;45.648;9.004;2023-06-04T08:52:06;99142.22;;;21.13;63.31
59063;BME280;44851;45.648;9.004;2023-06-04T08:54:32;99150.78;;;21.21;63.27
59063;BME280;44851;45.648;9.004;2023-06-04T08:57:00;99153.00;;;21.11;63.19
59063;BME280;44851;45.648;9.004;2023-06-04T08:59:26;99153.63;;;21.20;62.54
59063;BME280;44851;45.648;9.004;2023-06-04T09:01:56;99164.22;;;21.00;62.66
59063;BME280;44851;45.648;9.004;2023-06-04T09:04:22;99161.94;;;20.84;61.96
59063;BME280;44851;45.648;9.004;2023-06-04T09:06:48;99158.91;;;21.00;63.41
59063;BME280;44851;45.648;9.004;2023-06-04T09:09:15;99161.97;;;21.10;63.18
59063;BME280;44851;45.648;9.004;2023-06-04T09:11:51;99163.81;;;21.29;63.12
59063;BME280;44851;45.648;9.004;2023-06-04T09:14:17;99158.88;;;20.87;61.68
59063;BME280;44851;45.648;9.004;2023-06-04T09:16:47;99152.16;;;20.97;60.53
59063;BME280;44851;45.648;9.004;2023-06-04T09:19:13;99152.78;;;20.93;61.98
59063;BME280;44851;45.648;9.004;2023-06-04T09:21:59;99156.88;;;20.89;61.14
59063;BME280;44851;45.648;9.004;2023-06-04T09:24:38;99159.31;;;21.10;61.76
59063;BME280;44851;45.648;9.004;2023-06-04T09:27:18;99161.59;;;21.13;61.16
59063;BME280;44851;45.648;9.004;2023-06-04T09:32:28;99163.81;;;21.43;60.57
59063;BME280;44851;45.648;9.004;2023-06-04T09:34:56;99161.38;;;21.48;60.74
59063;BME280;44851;45.648;9.004;2023-06-04T09:37:22;99167.06;;;21.51;60.30
59063;BME280;44851;45.648;9.004;2023-06-04T09:39:57;99170.31;;;21.60;59.56
59063;BME280;44851;45.648;9.004;2023-06-04T09:42:23;99171.94;;;21.68;60.54
59063;BME280;44851;45.648;9.004;2023-06-04T09:44:51;99177.63;;;21.78;60.29
59063;BME280;44851;45.648;9.004;2023-06-04T09:47:17;99172.34;;;21.65;60.46
59063;BME280;44851;45.648;9.004;2023-06-04T09:49:44;99176.44;;;21.74;59.75
59063;BME280;44851;45.648;9.004;2023-06-04T09:52:10;99166.63;;;21.88;61.30
59063;BME280;44851;45.648;9.004;2023-06-04T09:54:37;99164.97;;;21.93;61.26
59063;BME280;44851;45.648;9.004;2023-06-04T09:57:14;99166.59;;;21.94;58.73
59063;BME280;44851;45.648;9.004;2023-06-04T09:59:48;99164.59;;;21.90;58.38
59063;BME280;44851;45.648;9.004;2023-06-04T10:02:19;99158.19;;;22.04;58.68
59063;BME280;44851;45.648;9.004;2023-06-04T10:04:49;99166.38;;;21.83;57.51
59063;BME280;44851;45.648;9.004;2023-06-04T10:07:19;99161.31;;;21.88;59.10
59063;BME280;44851;45.648;9.004;2023-06-04T10:09:46;99164.75;;;21.95;60.25
59063;BME280;44851;45.648;9.004;2023-06-04T10:12:14;99158.19;;;22.04;59.87
59063;BME280;44851;45.648;9.004;2023-06-04T10:14:51;99163.56;;;21.91;58.75
59063;BME280;44851;45.648;9.004;2023-06-04T10:17:19;99162.09;;;21.95;59.55
59063;BME280;44851;45.648;9.004;2023-06-04T10:19:48;99161.28;;;22.01;58.40
59063;BME280;44851;45.648;9.004;2023-06-04T10:22:17;99158.81;;;22.06;59.55
59063;BME280;44851;45.648;9.004;2023-06-04T10:24:43;99163.31;;;21.99;58.86
59063;BME280;44851;45.648;9.004;2023-06-04T10:27:11;99152.88;;;22.04;57.83
59063;BME280;44851;45.648;9.004;2023-06-04T10:29:38;99158.19;;;22.04;58.40
59063;BME280;44851;45.648;9.004;2023-06-04T10:32:05;99151.47;;;22.01;58.21
59063;BME280;44851;45.648;9.004;2023-06-04T10:34:31;99157.63;;;21.95;57.74
59063;BME280;44851;45.648;9.004;2023-06-04T10:36:58;99158.00;;;21.99;58.94
59063;BME280;44851;45.648;9.004;2023-06-04T10:39:30;99157.59;;;22.02;58.22
59063;BME280;44851;45.648;9.004;2023-06-04T10:42:00;99161.28;;;21.94;59.66
59063;BME280;44851;45.648;9.004;2023-06-04T10:44:25;99155.38;;;21.92;57.41
59063;BME280;44851;45.648;9.004;2023-06-04T10:46:51;99166.19;;;21.97;57.45
59063;BME280;44851;45.648;9.004;2023-06-04T10:49:26;99156.22;;;21.86;57.28
59063;BME280;44851;45.648;9.004;2023-06-04T10:51:52;99158.06;;;21.86;58.18
59063;BME280;44851;45.648;9.004;2023-06-04T10:54:25;99162.91;;;22.02;57.81
59063;BME280;44851;45.648;9.004;2023-06-04T10:56:52;99146.97;;;22.02;58.24
59063;BME280;44851;45.648;9.004;2023-06-04T10:59:18;99159.41;;;22.08;57.61
59063;BME280;44851;45.648;9.004;2023-06-04T11:01:44;99157.13;;;22.18;56.78
59063;BME280;44851;45.648;9.004;2023-06-04T11:04:20;99162.03;;;22.15;57.21
59063;BME280;44851;45.648;9.004;2023-06-04T11:06:55;99151.59;;;22.20;56.98
59063;BME280;44851;45.648;9.004;2023-06-04T11:09:26;99149.66;;;22.40;56.88
59063;BME280;44851;45.648;9.004;2023-06-04T11:11:58;99158.16;;;22.62;55.93
59063;BME280;44851;45.648;9.004;2023-06-04T11:14:25;99160.38;;;22.65;55.90
59063;BME280;44851;45.648;9.004;2023-06-04T11:16:51;99158.78;;;22.51;53.96
59063;BME280;44851;45.648;9.004;2023-06-04T11:19:16;99155.59;;;22.80;56.10
59063;BME280;44851;45.648;9.004;2023-06-04T11:21:43;99160.91;;;22.80;55.77
59063;BME280;44851;45.648;9.004;2023-06-04T11:24:09;99147.09;;;22.65;55.30
59063;BME280;44851;45.648;9.004;2023-06-04T11:26:36;99148.59;;;22.86;52.39
59063;BME280;44851;45.648;9.004;2023-06-04T11:29:10;99143.00;;;22.94;54.48
59063;BME280;44851;45.648;9.004;2023-06-04T11:31:47;99134.97;;;23.51;51.95
59063;BME280;44851;45.648;9.004;2023-06-04T11:34:26;99133.25;;;24.00;53.43
59063;BME280;44851;45.648;9.004;2023-06-04T11:36:52;99134.50;;;24.46;52.61
59063;BME280;44851;45.648;9.004;2023-06-04T11:39:22;99127.38;;;24.39;50.73
59063;BME280;44851;45.648;9.004;2023-06-04T11:41:48;99124.41;;;24.48;50.85
59063;BME280;44851;45.648;9.004;2023-06-04T11:44:18;99118.63;;;24.51;50.21
59063;BME280;44851;45.648;9.004;2023-06-04T11:46:44;99108.75;;;24.81;51.27
59063;BME280;44851;45.648;9.004;2023-06-04T11:49:18;99116.81;;;25.05;49.25
59063;BME280;44851;45.648;9.004;2023-06-04T11:51:52;99103.78;;;25.08;48.72
59063;BME280;44851;45.648;9.004;2023-06-04T11:54:22;99105.53;;;25.03;49.11
59063;BME280;44851;45.648;9.004;2023-06-04T11:56:49;99104.16;;;25.12;49.04
59063;BME280;44851;45.648;9.004;2023-06-04T11:59:17;99100.09;;;25.09;49.60
59063;BME280;44851;45.648;9.004;2023-06-04T12:01:44;99097.44;;;25.44;50.20
59063;BME280;44851;45.648;9.004;2023-06-04T12:04:13;99102.88;;;25.50;48.56
59063;BME280;44851;45.648;9.004;2023-06-04T12:06:53;99091.66;;;25.24;46.99
59063;BME280;44851;45.648;9.004;2023-06-04T12:09:21;99087.47;;;25.05;45.99
59063;BME280;44851;45.648;9.004;2023-06-04T12:11:47;99082.13;;;25.28;48.10
59063;BME280;44851;45.648;9.004;2023-06-04T12:14:17;99080.50;;;25.39;44.73
59063;BME280;44851;45.648;9.004;2023-06-04T12:16:54;99075.63;;;25.24;45.12
59063;BME280;44851;45.648;9.004;2023-06-04T12:19:20;99077.81;;;25.04;46.30
59063;BME280;44851;45.648;9.004;2023-06-04T12:21:45;99071.34;;;25.23;46.91
59063;BME280;44851;45.648;9.004;2023-06-04T12:24:12;99077.47;;;25.35;45.97
59063;BME280;44851;45.648;9.004;2023-06-04T12:26:39;99071.44;;;25.52;44.79
59063;BME280;44851;45.648;9.004;2023-06-04T12:29:14;99064.97;;;25.01;44.49
59063;BME280;44851;45.648;9.004;2023-06-04T12:31:41;99058.34;;;24.91;46.00
59063;BME280;44851;45.648;9.004;2023-06-04T12:34:06;99061.50;;;25.24;46.18
59063;BME280;44851;45.648;9.004;2023-06-04T12:36:32;99059.03;;;25.46;44.66
59063;BME280;44851;45.648;9.004;2023-06-04T12:39:03;99052.50;;;25.65;45.09
59063;BME280;44851;45.648;9.004;2023-06-04T12:41:29;99050.81;;;25.12;43.62
59063;BME280;44851;45.648;9.004;2023-06-04T12:43:55;99046.38;;;25.53;44.65
59063;BME280;44851;45.648;9.004;2023-06-04T12:46:22;99047.91;;;25.89;44.87
59063;BME280;44851;45.648;9.004;2023-06-04T12:48:51;99046.47;;;25.98;44.71
59063;BME280;44851;45.648;9.004;2023-06-04T12:51:17;99039.72;;;25.67;42.79
59063;BME280;44851;45.648;9.004;2023-06-04T12:53:43;99038.47;;;25.58;42.64
59063;BME280;44851;45.648;9.004;2023-06-04T12:56:09;99032.19;;;25.64;43.83
59063;BME280;44851;45.648;9.004;2023-06-04T12:58:34;99034.53;;;26.01;43.00
59063;BME280;44851;45.648;9.004;2023-06-04T13:01:00;99024.91;;;26.45;43.46
59063;BME280;44851;45.648;9.004;2023-06-04T13:03:29;99030.81;;;26.64;41.85
59063;BME280;44851;45.648;9.004;2023-06-04T13:05:55;99029.47;;;27.00;43.69